AirportContent of METAR report
LYBEMETAR LYBE 210030Z 33005KT CAVOK 04/01 Q1034 NOSIG=
LYBTMETAR LYBT 210030Z 30003KT 270V330 CAVOK 02/M00 Q1034 NOSIG=
LYKVMETAR LYKV 210030Z 26003KT 9999 BKN045 07/02 Q1033 NOSIG=
LYNIMETAR LYNI 210030Z 32011KT 9999 BKN040 08/00 Q1032 NOSIG=
LYVRMETAR LYVR 210030Z VRB03KT CAVOK 06/00 Q1033 NOSIG=
LYUZMETAR LYUZ 210030Z AUTO 33005KT 3900 BR FEW001/// OVC035/// 01/00 Q1032=
LYPGNOT AVAILABLE
LYTVMETAR LYTV 210030Z VRB06KT CAVOK 16/02 Q1024=

Data loaded: 2019-03-21 00:51:53 UTC

METAR, TAF, AIRMET, GAMET, SIGMET

Important note: MET information on these web pages are informative and restricted to aeronautical users, must not be used for any commercial purpose, and do not replace flight documentation.